Time;durP1;ratioP1;P1;durP2;ratioP2;P2;SDS_P1;SDS_P2;PMS_P1;PMS_P2;Temp;Humidity;BMP_temperature;BMP_pressure;BME280_temperature;BME280_humidity;BME280_pressure;Samples;Min_cycle;Max_cycle;Signal;HPM_P1;HPM_P2
2022/11/11 00:08:46;;;;;;;10.48;6.82;;;;;;;21.65;59.33;101773.22;21002696;28;20050;-76
2022/11/11 00:29:07;;;;;;;8.82;6.13;;;;;;;21.61;59.08;101787.50;21005814;28;19920;-77
2022/11/11 00:39:07;;;;;;;8.77;6.35;;;;;;;21.58;59.13;101792.00;21007015;28;24479;-77
2022/11/11 00:59:27;;;;;;;8.68;6.38;;;;;;;21.57;58.78;101806.13;20988127;28;20052;-77
2022/11/11 01:09:27;;;;;;;9.25;5.72;;;;;;;21.54;58.88;101795.72;21000245;27;20433;-75
2022/11/11 01:19:27;;;;;;;8.80;6.07;;;;;;;21.51;58.96;101787.16;21013819;28;20044;-76
2022/11/11 01:29:28;;;;;;;7.82;6.20;;;;;;;21.52;58.77;101796.72;21020531;28;20052;-76
2022/11/11 01:39:28;;;;;;;8.32;5.95;;;;;;;21.52;58.95;101799.38;20997852;28;20132;-76
2022/11/11 01:49:35;;;;;;;10.00;5.97;;;;;;;21.49;58.88;101803.03;21003024;28;20121;-76
2022/11/11 01:59:39;;;;;;;9.73;5.50;;;;;;;21.49;58.38;101792.50;21009147;28;20068;-76
2022/11/11 02:09:44;;;;;;;6.93;5.28;;;;;;;21.47;58.65;101797.03;20999360;28;20044;-76
2022/11/11 02:19:59;;;;;;;6.60;5.10;;;;;;;21.47;58.67;101801.41;20999637;28;20052;-75
2022/11/11 02:30:00;;;;;;;7.38;5.72;;;;;;;21.43;58.82;101806.88;20997526;28;20040;-76
2022/11/11 02:40:06;;;;;;;7.15;5.45;;;;;;;21.41;58.82;101811.38;20990386;28;20036;-76
2022/11/11 02:50:07;;;;;;;8.50;5.45;;;;;;;21.41;58.64;101828.97;20998076;28;20044;-76
2022/11/11 03:00:08;;;;;;;6.80;5.18;;;;;;;21.39;58.42;101836.13;21011495;28;20085;-75
2022/11/11 03:10:08;;;;;;;7.82;5.53;;;;;;;21.35;58.84;101845.97;20978432;28;20139;-75
2022/11/11 03:30:29;;;;;;;6.88;4.97;;;;;;;21.33;58.35;101870.72;21011345;28;20043;-75
2022/11/11 03:40:30;;;;;;;6.45;4.78;;;;;;;21.32;58.57;101875.13;21018739;28;20043;-77
2022/11/11 03:50:30;;;;;;;9.23;4.93;;;;;;;21.29;58.64;101867.41;21019855;28;20051;-77
2022/11/11 04:00:37;;;;;;;8.23;5.37;;;;;;;21.28;58.40;101884.13;21020263;28;20048;-76
2022/11/11 04:10:37;;;;;;;7.38;4.90;;;;;;;21.29;58.54;101888.47;21002473;28;21207;-79
2022/11/11 04:31:03;;;;;;;6.90;4.78;;;;;;;21.26;58.64;101891.25;20994551;28;20043;-77
2022/11/11 04:41:03;;;;;;;7.22;4.78;;;;;;;21.25;58.45;101895.69;21008072;28;20044;-77
2022/11/11 04:51:04;;;;;;;5.57;4.32;;;;;;;21.19;59.00;101896.00;20998614;28;20047;-76
2022/11/11 05:01:04;;;;;;;5.60;4.55;;;;;;;21.20;59.14;101910.91;21000077;28;20049;-77
2022/11/11 05:11:04;;;;;;;7.55;5.38;;;;;;;21.21;59.07;101903.81;20994859;28;20059;-77
2022/11/11 05:21:19;;;;;;;8.20;4.30;;;;;;;21.25;58.92;101906.22;21004919;28;20051;-85
2022/11/11 05:31:19;;;;;;;7.35;5.00;;;;;;;21.41;60.09;101902.75;20977442;28;20036;-79
2022/11/11 05:41:20;;;;;;;19.10;5.10;;;;;;;21.50;60.76;101922.50;20981268;28;20119;-83
2022/11/11 05:51:26;;;;;;;15.82;5.43;;;;;;;21.58;60.72;101934.34;20981666;28;20039;-78
2022/11/11 06:01:27;;;;;;;19.02;5.28;;;;;;;21.65;59.73;101937.47;20992413;28;20040;-80
2022/11/11 06:11:29;;;;;;;15.50;5.70;;;;;;;21.70;60.14;101950.41;20981157;28;20044;-76
2022/11/11 06:21:55;;;;;;;15.57;6.60;;;;;;;21.71;58.09;101955.59;20984893;27;20040;-77
2022/11/11 06:31:51;;;;;;;15.82;5.28;;;;;;;21.78;59.00;101982.50;20972674;28;20549;-77
2022/11/11 06:41:52;;;;;;;20.00;9.23;;;;;;;21.47;51.40;101970.09;20980478;28;20044;-77
2022/11/11 06:51:52;;;;;;;11.98;7.15;;;;;;;21.55;54.74;101979.28;20973876;28;20082;-78
2022/11/11 07:01:58;;;;;;;13.35;6.70;;;;;;;21.65;55.80;101992.00;20958621;28;20454;-78
2022/11/11 07:11:59;;;;;;;9.55;5.88;;;;;;;;;;20990651;28;20132;-78
2022/11/11 07:21:59;;;;;;;11.05;5.82;;;;;;;21.82;57.92;102030.66;20998411;28;20449;-78
2022/11/11 07:31:59;;;;;;;7.63;5.70;;;;;;;21.87;57.73;102041.78;20991250;28;20101;-78
2022/11/11 07:42:00;;;;;;;9.45;5.78;;;;;;;21.93;57.36;102057.28;20985607;28;20410;-78
2022/11/11 07:52:00;;;;;;;10.98;5.93;;;;;;;21.97;57.44;102061.47;20997076;28;20036;-78
2022/11/11 08:02:01;;;;;;;8.00;5.35;;;;;;;22.02;57.86;102067.34;21001177;28;20322;-78
2022/11/11 08:22:20;;;;;;;9.38;6.30;;;;;;;22.10;57.58;102068.72;21009820;28;20036;-78
2022/11/11 08:32:21;;;;;;;9.88;5.80;;;;;;;22.14;57.80;102071.09;21003680;28;20893;-78
2022/11/11 08:42:21;;;;;;;10.05;6.53;;;;;;;22.18;57.41;102071.75;21007233;28;20048;-78
2022/11/11 08:52:21;;;;;;;10.18;7.53;;;;;;;22.23;57.46;102075.84;21000111;28;20044;-77
2022/11/11 09:02:22;;;;;;;9.60;7.05;;;;;;;22.29;57.49;102077.31;21001961;28;20049;-78
2022/11/11 09:12:22;;;;;;;9.77;6.95;;;;;;;22.32;57.62;102076.28;20994105;28;20386;-78
2022/11/11 09:22:23;;;;;;;9.93;6.97;;;;;;;22.32;57.49;102073.66;20999737;28;20096;-78
2022/11/11 09:32:23;;;;;;;8.30;6.63;;;;;;;22.32;57.31;102068.38;20998783;28;20043;-78
2022/11/11 09:42:39;;;;;;;9.40;6.95;;;;;;;22.31;57.29;102062.22;20979613;28;20063;-78
2022/11/11 09:53:05;;;;;;;9.32;7.18;;;;;;;22.32;57.17;102065.72;20983241;28;20078;-78
2022/11/11 10:03:08;;;;;;;9.65;7.25;;;;;;;22.35;57.28;102065.53;20961829;28;20064;-78
2022/11/11 10:13:24;;;;;;;9.05;6.70;;;;;;;22.43;57.38;102065.16;20963607;28;20531;-78
2022/11/11 10:23:31;;;;;;;10.55;6.93;;;;;;;22.44;57.04;102036.03;20973392;28;20041;-78
2022/11/11 10:33:45;;;;;;;8.48;6.85;;;;;;;22.44;57.23;102030.75;20971685;28;20036;-78
2022/11/11 10:43:48;;;;;;;9.18;6.63;;;;;;;22.47;57.17;102029.72;20973811;28;20051;-78
2022/11/11 10:54:05;;;;;;;9.10;6.30;;;;;;;22.50;56.62;102046.25;20976410;28;20037;-78
2022/11/11 11:04:14;;;;;;;7.35;6.20;;;;;;;22.52;56.60;102014.47;20975986;28;20076;-78
2022/11/11 11:14:20;;;;;;;7.35;5.72;;;;;;;22.51;56.21;101999.59;20968521;28;20051;-78
2022/11/11 11:24:26;;;;;;;7.43;5.93;;;;;;;22.54;55.90;101999.41;20983585;28;20561;-78
2022/11/11 11:34:43;;;;;;;7.50;5.95;;;;;;;22.55;56.05;101994.03;20985410;28;20460;-78
2022/11/11 11:44:43;;;;;;;7.45;5.70;;;;;;;22.58;55.68;102011.47;21007705;28;20041;-79
2022/11/11 11:55:00;;;;;;;8.60;5.50;;;;;;;22.60;55.46;102011.41;20992110;28;20125;-78
2022/11/11 12:05:19;;;;;;;7.30;5.60;;;;;;;22.64;55.50;102005.88;21008881;28;20052;-79
2022/11/11 12:15:49;;;;;;;6.30;5.07;;;;;;;22.76;55.22;102014.84;20972085;28;20049;-78
2022/11/11 12:26:10;;;;;;;8.60;5.20;;;;;;;22.82;55.44;102005.72;20991966;28;20124;-75
2022/11/11 12:36:41;;;;;;;10.20;5.53;;;;;;;22.90;55.20;102018.47;20996725;28;20040;-75
2022/11/11 12:47:15;;;;;;;5.22;4.60;;;;;;;23.01;55.13;101995.75;20997880;28;20133;-76
2022/11/11 12:57:32;;;;;;;19.05;4.95;;;;;;;23.06;54.16;102013.97;20994762;28;20298;-75
2022/11/11 13:07:33;;;;;;;19.40;4.63;;;;;;;23.05;52.23;101996.44;20990501;28;20048;-76
2022/11/11 13:17:33;;;;;;;11.93;4.38;;;;;;;22.97;51.61;101969.63;20933870;28;20514;-76
2022/11/11 13:27:38;;;;;;;10.00;3.67;;;;;;;22.80;48.83;101981.19;20999411;28;20178;-75
2022/11/11 13:37:41;;;;;;;7.82;3.80;;;;;;;22.78;51.22;101996.28;20979053;28;20052;-76
2022/11/11 13:47:46;;;;;;;12.52;4.15;;;;;;;22.62;49.92;101970.78;20969255;28;20075;-75
2022/11/11 13:57:50;;;;;;;8.32;3.97;;;;;;;22.62;51.37;101967.25;20988488;28;20511;-76
2022/11/11 14:07:53;;;;;;;8.27;3.90;;;;;;;22.60;52.43;101970.00;20986906;28;20545;-75
2022/11/11 14:17:54;;;;;;;6.75;3.35;;;;;;;22.57;53.04;101970.19;20977023;28;20478;-75
2022/11/11 14:27:54;;;;;;;6.70;3.40;;;;;;;22.54;53.48;101954.53;20976272;28;20044;-76
2022/11/11 14:38:20;;;;;;;6.40;3.63;;;;;;;22.55;53.95;101935.94;20972585;28;20398;-73
2022/11/11 14:48:51;;;;;;;12.02;3.50;;;;;;;22.54;53.89;101943.97;20974452;28;20055;-76
2022/11/11 14:58:51;;;;;;;9.82;3.10;;;;;;;22.49;54.11;101944.22;20983028;28;20407;-76
2022/11/11 15:08:57;;;;;;;6.25;3.45;;;;;;;22.46;54.13;101946.19;20982387;28;20044;-76
2022/11/11 15:19:36;;;;;;;5.45;3.00;;;;;;;22.43;54.20;101951.66;20983449;28;20048;-75
2022/11/11 15:30:08;;;;;;;4.05;3.10;;;;;;;22.38;54.59;101954.56;20885692;28;20533;-75
2022/11/11 15:40:18;;;;;;;6.07;2.80;;;;;;;22.35;54.33;101960.84;20978164;28;20072;-77
2022/11/11 15:50:24;;;;;;;3.65;2.53;;;;;;;22.31;54.53;101967.22;20995486;28;20506;-77
2022/11/11 16:00:29;;;;;;;8.65;3.72;;;;;;;22.23;54.42;101962.38;20979495;28;20137;-77
2022/11/11 16:10:32;;;;;;;6.93;3.80;;;;;;;22.27;55.21;101980.69;20976627;28;20506;-76
2022/11/11 16:20:39;;;;;;;7.85;3.65;;;;;;;22.25;55.18;101977.28;20986319;28;20044;-74
2022/11/11 16:30:40;;;;;;;4.05;3.03;;;;;;;22.26;55.14;101971.06;21003193;28;20697;-74
2022/11/11 16:40:42;;;;;;;5.90;3.60;;;;;;;22.22;55.33;101954.56;20991387;28;20384;-75
2022/11/11 16:50:56;;;;;;;6.97;3.33;;;;;;;22.24;55.81;101963.25;20977444;28;20040;-76
2022/11/11 17:01:03;;;;;;;10.15;3.53;;;;;;;22.21;55.78;101956.34;20988847;28;20307;-75
2022/11/11 17:11:06;;;;;;;25.05;3.70;;;;;;;22.20;55.94;101967.84;20969523;27;20044;-74
2022/11/11 17:21:06;;;;;;;6.25;3.47;;;;;;;22.21;56.21;101944.94;20982139;28;20529;-75
2022/11/11 17:31:09;;;;;;;9.07;3.80;;;;;;;22.23;56.54;101943.09;20988687;28;20028;-75
2022/11/11 17:41:13;;;;;;;7.63;3.60;;;;;;;22.21;56.71;101943.16;20980652;28;20044;-76
2022/11/11 17:51:14;;;;;;;9.25;4.20;;;;;;;22.20;57.20;101930.91;20997674;28;20032;-76
2022/11/11 18:01:14;;;;;;;6.80;3.55;;;;;;;22.21;57.10;101931.75;20974710;28;20410;-76
2022/11/11 18:11:15;;;;;;;6.68;3.65;;;;;;;22.19;57.46;101920.44;20996590;28;20036;-77
2022/11/11 18:21:15;;;;;;;8.90;3.67;;;;;;;22.16;57.43;101907.44;20988048;28;20040;-77
2022/11/11 18:31:16;;;;;;;10.20;3.90;;;;;;;22.13;57.79;101905.81;20990846;28;20039;-77
2022/11/11 18:41:18;;;;;;;7.00;3.17;;;;;;;22.11;57.92;101906.84;21001080;28;20498;-77
2022/11/11 18:51:19;;;;;;;;;;;;;;;22.13;57.79;101902.31;21003781;28;20105;-76
2022/11/11 19:01:25;;;;;;;10.07;3.90;;;;;;;22.10;57.63;101906.00;20968539;28;19928;-77
2022/11/11 19:11:27;;;;;;;7.72;3.75;;;;;;;22.12;57.89;101890.06;20960384;28;20040;-76
2022/11/11 19:21:30;;;;;;;6.03;3.80;;;;;;;22.12;57.89;101904.13;20980256;28;20047;-76
2022/11/11 19:31:31;;;;;;;5.95;3.75;;;;;;;22.16;57.96;101910.91;20981236;28;20521;-76
2022/11/11 19:41:31;;;;;;;6.72;3.85;;;;;;;22.19;58.05;101908.09;21001589;28;20383;-76
2022/11/11 19:51:32;;;;;;;8.95;3.70;;;;;;;22.24;57.65;101905.22;20975954;28;20058;-77
2022/11/11 20:01:33;;;;;;;10.73;4.18;;;;;;;22.23;57.61;101911.41;20986892;28;20441;-77
2022/11/11 20:11:39;;;;;;;4.72;3.50;;;;;;;22.23;57.31;101908.78;20980311;27;20040;-74
2022/11/11 20:21:43;;;;;;;5.70;3.30;;;;;;;22.26;57.24;101919.13;20981525;28;20062;-78
2022/11/11 20:31:43;;;;;;;6.78;3.60;;;;;;;22.27;57.32;101923.50;20981287;28;20538;-77
2022/11/11 20:41:43;;;;;;;4.30;3.47;;;;;;;22.28;57.20;101927.00;20993077;28;20105;-77
2022/11/11 20:51:44;;;;;;;4.35;3.42;;;;;;;22.27;57.49;101928.75;20991268;28;20052;-77
2022/11/11 21:01:46;;;;;;;7.23;4.00;;;;;;;22.27;56.99;101927.94;20993516;28;20209;-76
2022/11/11 21:11:46;;;;;;;11.83;6.40;;;;;;;22.10;54.61;101926.25;20992651;28;20316;-80
2022/11/11 21:21:48;;;;;;;10.80;5.68;;;;;;;22.12;55.12;101925.22;21008530;28;20080;-81
2022/11/11 21:31:48;;;;;;;11.95;5.95;;;;;;;22.07;55.56;101914.09;21009385;28;20047;-80
2022/11/11 21:41:50;;;;;;;11.93;5.60;;;;;;;22.04;55.85;101919.53;20991490;28;20534;-80
2022/11/11 21:51:50;;;;;;;8.50;5.05;;;;;;;22.02;56.01;101918.75;20998647;28;20105;-80
2022/11/11 22:01:50;;;;;;;7.68;5.00;;;;;;;21.99;55.96;101900.47;21000487;28;20041;-81
2022/11/11 22:11:51;;;;;;;8.85;5.43;;;;;;;21.96;56.05;101911.19;20997391;28;20043;-81
2022/11/11 22:21:52;;;;;;;9.35;5.32;;;;;;;21.90;56.32;101907.97;20990453;28;20071;-79
2022/11/11 22:31:53;;;;;;;11.10;5.90;;;;;;;21.88;56.02;101907.19;20986559;28;20051;-80
2022/11/11 22:41:53;;;;;;;10.35;5.78;;;;;;;21.81;56.49;101900.56;21001780;28;20047;-80
2022/11/11 22:51:54;;;;;;;11.00;5.82;;;;;;;21.77;56.76;101893.78;20993677;28;20047;-79
2022/11/11 23:01:56;;;;;;;7.93;5.50;;;;;;;21.75;56.89;101872.78;20989636;28;20043;-80
2022/11/11 23:11:56;;;;;;;14.83;6.67;;;;;;;21.74;57.13;101883.41;20987543;28;20063;-79
2022/11/11 23:21:57;;;;;;;8.85;5.90;;;;;;;21.70;56.95;101858.16;20989492;28;20387;-78
2022/11/11 23:31:57;;;;;;;9.75;6.05;;;;;;;21.66;57.25;101857.47;20999735;28;20442;-78
2022/11/11 23:41:58;;;;;;;9.50;6.10;;;;;;;21.68;57.26;101867.91;21017727;28;20145;-77
2022/11/11 23:51:58;;;;;;;9.65;6.07;;;;;;;21.68;57.45;101847.69;21012505;28;20040;-77
